sensor_id;sensor_type;location;lat;lon;timestamp;pressure;altitude;pressure_sealevel;temperature;humidity
54556;BME280;57291;37.520;15.106;2024-03-23T00:51:36;101342.16;;;13.11;89.25
54556;BME280;57291;37.520;15.106;2024-03-23T00:54:02;101336.47;;;13.08;89.36
54556;BME280;57291;37.520;15.106;2024-03-23T00:56:29;101332.41;;;13.05;89.35
54556;BME280;57291;37.520;15.106;2024-03-23T00:58:55;101338.78;;;13.01;89.41
54556;BME280;57291;37.520;15.106;2024-03-23T01:01:22;101325.19;;;12.96;89.68
54556;BME280;57291;37.520;15.106;2024-03-23T01:03:48;101323.06;;;12.93;89.76
54556;BME280;57291;37.520;15.106;2024-03-23T01:06:14;101322.25;;;12.92;90.06
54556;BME280;57291;37.520;15.106;2024-03-23T01:08:41;101326.69;;;12.88;89.80
54556;BME280;57291;37.520;15.106;2024-03-23T01:11:08;101331.94;;;12.84;90.24
54556;BME280;57291;37.520;15.106;2024-03-23T01:13:34;101323.81;;;12.79;90.49
54556;BME280;57291;37.520;15.106;2024-03-23T01:16:00;101330.69;;;12.77;90.58
54556;BME280;57291;37.520;15.106;2024-03-23T01:18:27;101327.13;;;12.76;90.83
54556;BME280;57291;37.520;15.106;2024-03-23T01:20:54;101327.97;;;12.77;91.20
54556;BME280;57291;37.520;15.106;2024-03-23T01:23:20;101326.25;;;12.81;91.73
54556;BME280;57291;37.520;15.106;2024-03-23T01:25:53;101329.78;;;12.81;92.17
54556;BME280;57291;37.520;15.106;2024-03-23T01:28:20;101321.50;;;12.86;92.06
54556;BME280;57291;37.520;15.106;2024-03-23T01:30:46;101326.97;;;12.86;91.93
54556;BME280;57291;37.520;15.106;2024-03-23T01:33:12;101324.78;;;12.88;91.65
54556;BME280;57291;37.520;15.106;2024-03-23T01:35:39;101329.41;;;12.88;91.58
54556;BME280;57291;37.520;15.106;2024-03-23T01:38:05;101330.00;;;12.85;91.23
54556;BME280;57291;37.520;15.106;2024-03-23T01:40:31;101324.34;;;12.81;91.05
54556;BME280;57291;37.520;15.106;2024-03-23T01:43:03;101322.19;;;12.78;91.45
54556;BME280;57291;37.520;15.106;2024-03-23T01:45:30;101321.38;;;12.78;91.63
54556;BME280;57291;37.520;15.106;2024-03-23T01:47:57;101316.75;;;12.78;92.79
54556;BME280;57291;37.520;15.106;2024-03-23T01:50:24;101319.69;;;12.82;93.70
54556;BME280;57291;37.520;15.106;2024-03-23T01:52:50;101315.03;;;12.82;95.12
54556;BME280;57291;37.520;15.106;2024-03-23T01:55:17;101313.63;;;12.85;95.85
54556;BME280;57291;37.520;15.106;2024-03-23T01:57:43;101318.88;;;12.81;96.05
54556;BME280;57291;37.520;15.106;2024-03-23T02:00:10;101311.59;;;12.77;96.77
54556;BME280;57291;37.520;15.106;2024-03-23T02:02:47;101317.53;;;12.79;97.92
54556;BME280;57291;37.520;15.106;2024-03-23T02:05:14;101312.09;;;12.79;98.61
54556;BME280;57291;37.520;15.106;2024-03-23T02:07:41;101318.06;;;12.81;99.43
54556;BME280;57291;37.520;15.106;2024-03-23T02:10:10;101321.88;;;12.80;99.86
54556;BME280;57291;37.520;15.106;2024-03-23T02:12:37;101320.59;;;12.77;100.00
54556;BME280;57291;37.520;15.106;2024-03-23T02:15:03;101324.97;;;12.73;100.00
54556;BME280;57291;37.520;15.106;2024-03-23T02:17:31;101316.09;;;12.67;100.00
54556;BME280;57291;37.520;15.106;2024-03-23T02:19:58;101319.41;;;12.64;100.00
54556;BME280;57291;37.520;15.106;2024-03-23T02:22:24;101312.63;;;12.62;100.00
54556;BME280;57291;37.520;15.106;2024-03-23T02:24:50;101317.25;;;12.61;100.00
54556;BME280;57291;37.520;15.106;2024-03-23T02:27:16;101317.53;;;12.60;100.00
54556;BME280;57291;37.520;15.106;2024-03-23T02:29:42;101317.84;;;12.58;100.00
54556;BME280;57291;37.520;15.106;2024-03-23T02:32:09;101319.75;;;12.58;100.00
54556;BME280;57291;37.520;15.106;2024-03-23T02:34:35;101311.94;;;12.51;100.00
54556;BME280;57291;37.520;15.106;2024-03-23T02:37:02;101320.13;;;12.51;100.00
54556;BME280;57291;37.520;15.106;2024-03-23T02:39:28;101318.50;;;12.50;100.00
54556;BME280;57291;37.520;15.106;2024-03-23T02:41:54;101319.81;;;12.53;100.00
54556;BME280;57291;37.520;15.106;2024-03-23T02:44:20;101317.63;;;12.55;100.00
54556;BME280;57291;37.520;15.106;2024-03-23T02:46:46;101326.03;;;12.58;100.00
54556;BME280;57291;37.520;15.106;2024-03-23T02:49:14;101309.66;;;12.58;100.00
54556;BME280;57291;37.520;15.106;2024-03-23T02:51:40;101322.19;;;12.59;100.00
54556;BME280;57291;37.520;15.106;2024-03-23T02:54:07;101328.44;;;12.60;100.00
54556;BME280;57291;37.520;15.106;2024-03-23T02:56:33;101328.44;;;12.60;100.00
54556;BME280;57291;37.520;15.106;2024-03-23T02:58:59;101322.72;;;12.61;100.00
54556;BME280;57291;37.520;15.106;2024-03-23T03:01:25;101321.31;;;12.64;100.00
54556;BME280;57291;37.520;15.106;2024-03-23T03:03:51;101329.50;;;12.64;100.00
54556;BME280;57291;37.520;15.106;2024-03-23T03:06:27;101334.97;;;12.64;100.00
54556;BME280;57291;37.520;15.106;2024-03-23T03:08:53;101328.66;;;12.63;100.00
54556;BME280;57291;37.520;15.106;2024-03-23T03:11:19;101327.06;;;12.62;100.00
54556;BME280;57291;37.520;15.106;2024-03-23T03:13:46;101329.28;;;12.60;100.00
54556;BME280;57291;37.520;15.106;2024-03-23T03:16:12;101328.44;;;12.60;100.00
54556;BME280;57291;37.520;15.106;2024-03-23T03:18:39;101327.41;;;12.56;100.00
54556;BME280;57291;37.520;15.106;2024-03-23T03:21:07;101327.41;;;12.56;100.00
54556;BME280;57291;37.520;15.106;2024-03-23T03:23:37;101329.03;;;12.57;100.00
54556;BME280;57291;37.520;15.106;2024-03-23T03:26:07;101331.25;;;12.55;100.00
54556;BME280;57291;37.520;15.106;2024-03-23T03:28:33;101337.56;;;12.50;100.00
54556;BME280;57291;37.520;15.106;2024-03-23T03:31:00;101339.72;;;12.53;100.00
54556;BME280;57291;37.520;15.106;2024-03-23T03:33:27;101330.22;;;12.51;100.00
54556;BME280;57291;37.520;15.106;2024-03-23T03:35:54;101334.84;;;12.50;100.00
54556;BME280;57291;37.520;15.106;2024-03-23T03:38:21;101331.91;;;12.47;100.00
54556;BME280;57291;37.520;15.106;2024-03-23T03:40:47;101330.00;;;12.47;100.00
54556;BME280;57291;37.520;15.106;2024-03-23T03:43:13;101331.09;;;12.46;100.00
54556;BME280;57291;37.520;15.106;2024-03-23T03:45:40;101328.66;;;12.44;100.00
54556;BME280;57291;37.520;15.106;2024-03-23T03:48:06;101325.41;;;12.42;100.00
54556;BME280;57291;37.520;15.106;2024-03-23T03:50:33;101339.03;;;12.42;100.00
54556;BME280;57291;37.520;15.106;2024-03-23T03:52:59;101331.97;;;12.41;100.00
54556;BME280;57291;37.520;15.106;2024-03-23T03:55:25;101330.88;;;12.42;100.00
54556;BME280;57291;37.520;15.106;2024-03-23T03:57:51;101334.13;;;12.44;100.00
54556;BME280;57291;37.520;15.106;2024-03-23T04:00:18;101336.84;;;12.44;100.00
54556;BME280;57291;37.520;15.106;2024-03-23T04:02:44;101330.88;;;12.42;100.00
54556;BME280;57291;37.520;15.106;2024-03-23T04:05:10;101343.69;;;12.42;100.00
54556;BME280;57291;37.520;15.106;2024-03-23T04:07:36;101341.28;;;12.40;100.00
54556;BME280;57291;37.520;15.106;2024-03-23T04:10:03;101334.75;;;12.36;100.00
54556;BME280;57291;37.520;15.106;2024-03-23T04:12:33;101334.25;;;12.34;100.00
54556;BME280;57291;37.520;15.106;2024-03-23T04:15:00;101337.56;;;12.31;100.00
54556;BME280;57291;37.520;15.106;2024-03-23T04:17:27;101342.22;;;12.31;100.00
54556;BME280;57291;37.520;15.106;2024-03-23T04:19:58;101333.50;;;12.29;100.00
54556;BME280;57291;37.520;15.106;2024-03-23T04:22:24;101334.88;;;12.26;100.00
54556;BME280;57291;37.520;15.106;2024-03-23T04:24:56;101334.13;;;12.20;100.00
54556;BME280;57291;37.520;15.106;2024-03-23T04:27:23;101340.91;;;12.23;100.00
54556;BME280;57291;37.520;15.106;2024-03-23T04:29:50;101334.97;;;12.21;100.00
54556;BME280;57291;37.520;15.106;2024-03-23T04:32:16;101340.69;;;12.19;100.00
54556;BME280;57291;37.520;15.106;2024-03-23T04:34:44;101342.63;;;12.19;100.00
54556;BME280;57291;37.520;15.106;2024-03-23T04:37:10;101338.84;;;12.15;100.00
54556;BME280;57291;37.520;15.106;2024-03-23T04:39:37;101334.78;;;12.12;100.00
54556;BME280;57291;37.520;15.106;2024-03-23T04:42:04;101338.63;;;12.11;100.00
54556;BME280;57291;37.520;15.106;2024-03-23T04:44:31;101337.78;;;12.11;100.00
54556;BME280;57291;37.520;15.106;2024-03-23T04:46:57;101338.91;;;12.10;100.00
54556;BME280;57291;37.520;15.106;2024-03-23T04:49:24;101339.22;;;12.08;100.00
54556;BME280;57291;37.520;15.106;2024-03-23T04:51:51;101340.00;;;12.09;100.00
54556;BME280;57291;37.520;15.106;2024-03-23T04:54:17;101338.41;;;12.08;100.00
54556;BME280;57291;37.520;15.106;2024-03-23T04:56:43;101340.81;;;12.09;100.00
54556;BME280;57291;37.520;15.106;2024-03-23T04:59:09;101343.53;;;12.09;100.00
54556;BME280;57291;37.520;15.106;2024-03-23T05:01:37;101344.56;;;12.13;100.00
54556;BME280;57291;37.520;15.106;2024-03-23T05:04:09;101350.13;;;12.27;100.00
54556;BME280;57291;37.520;15.106;2024-03-23T05:06:35;101354.81;;;12.46;100.00
54556;BME280;57291;37.520;15.106;2024-03-23T05:09:02;101359.34;;;12.74;100.00
54556;BME280;57291;37.520;15.106;2024-03-23T05:11:41;101354.19;;;13.10;100.00
54556;BME280;57291;37.520;15.106;2024-03-23T05:14:12;101349.06;;;13.42;100.00
54556;BME280;57291;37.520;15.106;2024-03-23T05:16:39;101355.09;;;13.71;99.85
54556;BME280;57291;37.520;15.106;2024-03-23T05:19:05;101360.69;;;14.07;97.07
54556;BME280;57291;37.520;15.106;2024-03-23T05:21:32;101353.81;;;14.38;94.21
54556;BME280;57291;37.520;15.106;2024-03-23T05:23:58;101360.66;;;14.76;90.34
54556;BME280;57291;37.520;15.106;2024-03-23T05:26:24;101355.06;;;15.18;87.12
54556;BME280;57291;37.520;15.106;2024-03-23T05:28:50;101374.63;;;15.56;84.30
54556;BME280;57291;37.520;15.106;2024-03-23T05:31:28;101363.44;;;15.98;81.27
54556;BME280;57291;37.520;15.106;2024-03-23T05:33:54;101367.56;;;16.17;79.15
54556;BME280;57291;37.520;15.106;2024-03-23T05:36:21;101366.22;;;16.63;77.08
54556;BME280;57291;37.520;15.106;2024-03-23T05:38:48;101374.53;;;17.16;75.09
54556;BME280;57291;37.520;15.106;2024-03-23T05:41:14;101373.81;;;17.53;71.01
54556;BME280;57291;37.520;15.106;2024-03-23T05:43:40;101372.53;;;17.77;68.87
54556;BME280;57291;37.520;15.106;2024-03-23T05:46:06;101376.69;;;18.21;67.55
54556;BME280;57291;37.520;15.106;2024-03-23T05:48:36;101379.13;;;18.82;64.69
54556;BME280;57291;37.520;15.106;2024-03-23T05:51:02;101380.63;;;19.67;64.73
54556;BME280;57291;37.520;15.106;2024-03-23T05:53:28;101382.69;;;20.40;60.98
54556;BME280;57291;37.520;15.106;2024-03-23T05:56:03;101383.94;;;20.67;57.25
54556;BME280;57291;37.520;15.106;2024-03-23T05:58:33;101380.50;;;20.58;55.27
54556;BME280;57291;37.520;15.106;2024-03-23T06:01:00;101384.50;;;20.48;55.65
54556;BME280;57291;37.520;15.106;2024-03-23T06:03:27;101390.38;;;20.59;55.45
54556;BME280;57291;37.520;15.106;2024-03-23T06:05:54;101387.94;;;21.22;54.40
54556;BME280;57291;37.520;15.106;2024-03-23T06:08:22;101390.56;;;21.75;52.53
54556;BME280;57291;37.520;15.106;2024-03-23T06:10:48;101389.88;;;22.10;51.48
54556;BME280;57291;37.520;15.106;2024-03-23T06:13:17;101394.06;;;22.51;49.02
54556;BME280;57291;37.520;15.106;2024-03-23T06:15:44;101398.38;;;22.84;49.48
54556;BME280;57291;37.520;15.106;2024-03-23T06:18:12;101388.69;;;23.13;46.76
54556;BME280;57291;37.520;15.106;2024-03-23T06:20:38;101390.41;;;23.60;45.91
54556;BME280;57291;37.520;15.106;2024-03-23T06:23:05;101383.59;;;24.23;46.21
54556;BME280;57291;37.520;15.106;2024-03-23T06:25:31;101385.72;;;24.33;44.14
54556;BME280;57291;37.520;15.106;2024-03-23T06:27:57;101391.97;;;24.79;43.29
54556;BME280;57291;37.520;15.106;2024-03-23T06:30:28;101381.41;;;24.36;43.54
54556;BME280;57291;37.520;15.106;2024-03-23T06:32:55;101383.63;;;24.49;42.95
54556;BME280;57291;37.520;15.106;2024-03-23T06:35:21;101387.44;;;24.68;42.37
54556;BME280;57291;37.520;15.106;2024-03-23T06:37:47;101386.59;;;24.64;42.07
54556;BME280;57291;37.520;15.106;2024-03-23T06:40:14;101392.72;;;24.46;43.03
54556;BME280;57291;37.520;15.106;2024-03-23T06:42:40;101396.56;;;24.65;42.62
54556;BME280;57291;37.520;15.106;2024-03-23T06:45:06;101394.66;;;24.72;42.16
54556;BME280;57291;37.520;15.106;2024-03-23T06:47:33;101394.00;;;24.52;42.10
54556;BME280;57291;37.520;15.106;2024-03-23T06:50:00;101396.59;;;24.98;40.45
54556;BME280;57291;37.520;15.106;2024-03-23T06:52:30;101389.16;;;24.76;40.20
54556;BME280;57291;37.520;15.106;2024-03-23T06:54:57;101394.16;;;23.29;43.39
54556;BME280;57291;37.520;15.106;2024-03-23T06:57:23;101390.69;;;23.74;42.21
54556;BME280;57291;37.520;15.106;2024-03-23T06:59:49;101391.00;;;22.56;43.03
54556;BME280;57291;37.520;15.106;2024-03-23T07:02:16;101390.06;;;23.03;44.06
54556;BME280;57291;37.520;15.106;2024-03-23T07:04:42;101391.19;;;23.37;42.31
54556;BME280;57291;37.520;15.106;2024-03-23T07:07:08;101398.78;;;24.06;41.72
54556;BME280;57291;37.520;15.106;2024-03-23T07:09:34;101394.03;;;24.06;42.17
54556;BME280;57291;37.520;15.106;2024-03-23T07:12:01;101398.31;;;24.27;42.05
54556;BME280;57291;37.520;15.106;2024-03-23T07:14:27;101391.84;;;24.42;42.12
54556;BME280;57291;37.520;15.106;2024-03-23T07:16:53;101402.63;;;24.47;43.06
54556;BME280;57291;37.520;15.106;2024-03-23T07:19:19;101405.34;;;24.70;41.62
54556;BME280;57291;37.520;15.106;2024-03-23T07:21:46;101404.59;;;24.73;42.07
54556;BME280;57291;37.520;15.106;2024-03-23T07:24:13;101410.03;;;24.93;41.63
54556;BME280;57291;37.520;15.106;2024-03-23T07:26:40;101411.59;;;24.90;41.80
54556;BME280;57291;37.520;15.106;2024-03-23T07:29:06;101410.97;;;24.24;41.48
54556;BME280;57291;37.520;15.106;2024-03-23T07:31:33;101417.47;;;24.55;41.37
54556;BME280;57291;37.520;15.106;2024-03-23T07:33:59;101415.00;;;24.27;42.22
54556;BME280;57291;37.520;15.106;2024-03-23T07:36:25;101418.63;;;22.88;43.69
54556;BME280;57291;37.520;15.106;2024-03-23T07:38:51;101428.91;;;22.20;45.57
54556;BME280;57291;37.520;15.106;2024-03-23T07:41:19;101425.69;;;22.50;45.97
54556;BME280;57291;37.520;15.106;2024-03-23T07:43:46;101426.13;;;22.52;45.26
54556;BME280;57291;37.520;15.106;2024-03-23T07:46:14;101432.75;;;22.47;46.10
54556;BME280;57291;37.520;15.106;2024-03-23T07:48:41;101431.50;;;22.80;44.98
54556;BME280;57291;37.520;15.106;2024-03-23T07:51:17;101429.72;;;22.88;45.51
54556;BME280;57291;37.520;15.106;2024-03-23T07:53:44;101434.16;;;22.57;45.09
54556;BME280;57291;37.520;15.106;2024-03-23T07:56:18;101441.75;;;22.60;44.45
54556;BME280;57291;37.520;15.106;2024-03-23T07:58:49;101442.22;;;22.46;45.09
54556;BME280;57291;37.520;15.106;2024-03-23T08:01:17;101451.88;;;22.21;45.90
54556;BME280;57291;37.520;15.106;2024-03-23T08:03:44;101442.50;;;22.26;45.12
54556;BME280;57291;37.520;15.106;2024-03-23T08:06:15;101437.34;;;21.80;46.65
54556;BME280;57291;37.520;15.106;2024-03-23T08:08:48;101442.25;;;21.87;45.89
54556;BME280;57291;37.520;15.106;2024-03-23T08:11:15;101443.84;;;21.44;47.07
54556;BME280;57291;37.520;15.106;2024-03-23T08:13:42;101436.25;;;21.28;46.81
54556;BME280;57291;37.520;15.106;2024-03-23T08:16:08;101437.88;;;20.28;49.06
54556;BME280;57291;37.520;15.106;2024-03-23T08:18:34;101439.59;;;19.41;51.59
54556;BME280;57291;37.520;15.106;2024-03-23T08:21:05;101444.84;;;18.54;53.70
54556;BME280;57291;37.520;15.106;2024-03-23T08:23:33;101444.00;;;18.24;54.55
54556;BME280;57291;37.520;15.106;2024-03-23T08:26:02;101443.00;;;18.37;55.47
54556;BME280;57291;37.520;15.106;2024-03-23T08:28:29;101448.16;;;18.39;54.80
54556;BME280;57291;37.520;15.106;2024-03-23T08:30:56;101447.28;;;18.09;55.86
54556;BME280;57291;37.520;15.106;2024-03-23T08:33:23;101450.88;;;18.47;55.38
54556;BME280;57291;37.520;15.106;2024-03-23T08:36:10;101450.16;;;18.21;55.77
54556;BME280;57291;37.520;15.106;2024-03-23T08:38:40;101450.19;;;18.59;55.37
54556;BME280;57291;37.520;15.106;2024-03-23T08:41:11;101452.94;;;18.89;54.68
54556;BME280;57291;37.520;15.106;2024-03-23T08:43:39;101439.38;;;19.26;53.76
54556;BME280;57291;37.520;15.106;2024-03-23T08:46:06;101450.38;;;19.05;52.91
54556;BME280;57291;37.520;15.106;2024-03-23T08:48:34;101451.25;;;18.67;55.27
54556;BME280;57291;37.520;15.106;2024-03-23T08:51:08;101450.06;;;18.47;54.81
54556;BME280;57291;37.520;15.106;2024-03-23T08:53:35;101449.13;;;18.43;55.96
54556;BME280;57291;37.520;15.106;2024-03-23T08:56:03;101461.31;;;18.33;56.44
54556;BME280;57291;37.520;15.106;2024-03-23T08:58:30;101450.47;;;18.28;56.63
54556;BME280;57291;37.520;15.106;2024-03-23T09:01:03;101456.47;;;18.21;58.14
54556;BME280;57291;37.520;15.106;2024-03-23T09:03:30;101456.63;;;18.25;58.44
54556;BME280;57291;37.520;15.106;2024-03-23T09:05:57;101453.25;;;18.19;58.25
54556;BME280;57291;37.520;15.106;2024-03-23T09:08:24;101455.31;;;18.31;56.41
54556;BME280;57291;37.520;15.106;2024-03-23T09:10:51;101454.25;;;18.15;59.16
54556;BME280;57291;37.520;15.106;2024-03-23T09:13:18;101456.13;;;18.32;57.68
54556;BME280;57291;37.520;15.106;2024-03-23T09:15:51;101450.97;;;18.30;57.83
54556;BME280;57291;37.520;15.106;2024-03-23T09:18:17;101459.66;;;18.32;57.23
54556;BME280;57291;37.520;15.106;2024-03-23T09:20:44;101454.81;;;18.29;57.62
54556;BME280;57291;37.520;15.106;2024-03-23T09:23:10;101454.78;;;18.46;56.70
54556;BME280;57291;37.520;15.106;2024-03-23T09:25:37;101450.69;;;18.52;53.79
54556;BME280;57291;37.520;15.106;2024-03-23T09:28:07;101449.78;;;18.40;53.97
54556;BME280;57291;37.520;15.106;2024-03-23T09:30:37;101447.06;;;18.31;56.63
54556;BME280;57291;37.520;15.106;2024-03-23T09:33:12;101448.56;;;18.20;57.49
54556;BME280;57291;37.520;15.106;2024-03-23T09:35:43;101453.28;;;18.11;60.05
54556;BME280;57291;37.520;15.106;2024-03-23T09:38:13;101439.69;;;18.14;58.41
54556;BME280;57291;37.520;15.106;2024-03-23T09:40:43;101446.84;;;18.07;58.18
54556;BME280;57291;37.520;15.106;2024-03-23T09:43:09;101458.59;;;18.16;61.40
54556;BME280;57291;37.520;15.106;2024-03-23T09:45:38;101453.50;;;18.35;60.66
54556;BME280;57291;37.520;15.106;2024-03-23T09:48:07;101458.13;;;18.14;58.67
54556;BME280;57291;37.520;15.106;2024-03-23T09:50:34;101453.88;;;18.25;59.63
54556;BME280;57291;37.520;15.106;2024-03-23T09:53:00;101458.66;;;17.90;60.49
54556;BME280;57291;37.520;15.106;2024-03-23T09:55:27;101469.78;;;18.11;60.68
54556;BME280;57291;37.520;15.106;2024-03-23T09:57:53;101464.56;;;18.26;62.53
54556;BME280;57291;37.520;15.106;2024-03-23T10:00:19;101473.78;;;18.22;61.81
54556;BME280;57291;37.520;15.106;2024-03-23T10:02:45;101472.63;;;18.32;61.56
54556;BME280;57291;37.520;15.106;2024-03-23T10:05:24;101466.47;;;18.35;63.31
54556;BME280;57291;37.520;15.106;2024-03-23T10:07:50;101468.47;;;18.17;62.03
54556;BME280;57291;37.520;15.106;2024-03-23T10:10:17;101465.50;;;18.31;62.62
54556;BME280;57291;37.520;15.106;2024-03-23T10:12:45;101462.72;;;18.39;63.34
54556;BME280;57291;37.520;15.106;2024-03-23T10:15:22;101465.47;;;18.39;60.34
54556;BME280;57291;37.520;15.106;2024-03-23T10:17:50;101459.28;;;18.51;60.77
54556;BME280;57291;37.520;15.106;2024-03-23T10:20:20;101459.75;;;18.53;58.89
54556;BME280;57291;37.520;15.106;2024-03-23T10:22:50;101461.59;;;18.40;61.43
54556;BME280;57291;37.520;15.106;2024-03-23T10:25:23;101456.19;;;18.52;60.67
54556;BME280;57291;37.520;15.106;2024-03-23T10:27:58;101460.81;;;18.31;64.17
54556;BME280;57291;37.520;15.106;2024-03-23T10:30:25;101462.47;;;18.23;64.97
54556;BME280;57291;37.520;15.106;2024-03-23T10:33:13;101467.91;;;18.32;66.14
54556;BME280;57291;37.520;15.106;2024-03-23T10:35:41;101462.53;;;18.44;65.67
54556;BME280;57291;37.520;15.106;2024-03-23T10:38:08;101465.16;;;18.70;64.21
54556;BME280;57291;37.520;15.106;2024-03-23T10:40:35;101463.47;;;18.87;63.34
54556;BME280;57291;37.520;15.106;2024-03-23T10:43:06;101462.75;;;18.98;63.87
54556;BME280;57291;37.520;15.106;2024-03-23T10:45:34;101465.63;;;18.81;63.66
54556;BME280;57291;37.520;15.106;2024-03-23T10:48:02;101460.31;;;18.67;63.69
54556;BME280;57291;37.520;15.106;2024-03-23T10:50:28;101456.66;;;18.55;61.62
54556;BME280;57291;37.520;15.106;2024-03-23T10:52:55;101453.88;;;18.63;63.11
54556;BME280;57291;37.520;15.106;2024-03-23T10:55:25;101451.28;;;18.96;60.13
54556;BME280;57291;37.520;15.106;2024-03-23T10:57:56;101441.53;;;19.20;58.93
54556;BME280;57291;37.520;15.106;2024-03-23T11:00:24;101438.34;;;18.88;60.22
54556;BME280;57291;37.520;15.106;2024-03-23T11:02:51;101437.50;;;18.96;60.89
54556;BME280;57291;37.520;15.106;2024-03-23T11:07:53;101438.16;;;18.72;63.98
54556;BME280;57291;37.520;15.106;2024-03-23T11:10:30;101436.69;;;18.37;64.53
54556;BME280;57291;37.520;15.106;2024-03-23T11:12:57;101440.34;;;18.02;65.71
54556;BME280;57291;37.520;15.106;2024-03-23T11:15:23;101426.00;;;17.88;67.44
54556;BME280;57291;37.520;15.106;2024-03-23T11:18:06;101433.75;;;17.86;66.16
54556;BME280;57291;37.520;15.106;2024-03-23T11:20:35;101422.47;;;17.79;65.25
54556;BME280;57291;37.520;15.106;2024-03-23T11:23:02;101429.72;;;17.75;65.91
54556;BME280;57291;37.520;15.106;2024-03-23T11:25:29;101424.09;;;17.63;67.42
54556;BME280;57291;37.520;15.106;2024-03-23T11:27:57;101421.03;;;17.64;67.80
54556;BME280;57291;37.520;15.106;2024-03-23T11:30:25;101416.97;;;17.62;67.00
54556;BME280;57291;37.520;15.106;2024-03-23T11:32:53;101421.69;;;17.61;68.89
54556;BME280;57291;37.520;15.106;2024-03-23T11:40:30;101404.41;;;17.34;70.12
54556;BME280;57291;37.520;15.106;2024-03-23T11:43:01;101406.66;;;17.41;68.95
54556;BME280;57291;37.520;15.106;2024-03-23T11:45:34;101401.31;;;17.45;70.12
54556;BME280;57291;37.520;15.106;2024-03-23T11:48:23;101398.41;;;17.32;69.92
54556;BME280;57291;37.520;15.106;2024-03-23T11:50:57;101395.19;;;17.30;72.45
54556;BME280;57291;37.520;15.106;2024-03-23T11:53:24;101388.25;;;17.24;73.42
54556;BME280;57291;37.520;15.106;2024-03-23T11:58:20;101385.78;;;17.57;72.22
54556;BME280;57291;37.520;15.106;2024-03-23T12:00:56;101389.59;;;18.00;68.58
54556;BME280;57291;37.520;15.106;2024-03-23T12:03:24;101383.50;;;18.24;68.16
54556;BME280;57291;37.520;15.106;2024-03-23T12:05:56;101386.53;;;18.31;68.29
54556;BME280;57291;37.520;15.106;2024-03-23T12:08:24;101375.75;;;18.47;68.40
54556;BME280;57291;37.520;15.106;2024-03-23T12:11:08;101378.91;;;18.58;68.75
54556;BME280;57291;37.520;15.106;2024-03-23T12:13:35;101375.78;;;18.09;69.61
54556;BME280;57291;37.520;15.106;2024-03-23T12:16:16;101375.06;;;17.82;70.84
54556;BME280;57291;37.520;15.106;2024-03-23T12:18:45;101373.75;;;17.88;69.75
54556;BME280;57291;37.520;15.106;2024-03-23T12:21:12;101365.03;;;17.86;71.66
54556;BME280;57291;37.520;15.106;2024-03-23T12:23:39;101363.53;;;17.97;70.97
54556;BME280;57291;37.520;15.106;2024-03-23T12:26:06;101360.97;;;17.92;72.45
54556;BME280;57291;37.520;15.106;2024-03-23T12:28:32;101349.84;;;17.80;73.78
54556;BME280;57291;37.520;15.106;2024-03-23T12:30:59;101350.59;;;17.98;73.13
54556;BME280;57291;37.520;15.106;2024-03-23T12:33:25;101351.44;;;18.19;72.15
54556;BME280;57291;37.520;15.106;2024-03-23T12:35:51;101346.28;;;18.18;71.15
54556;BME280;57291;37.520;15.106;2024-03-23T12:38:17;101347.06;;;18.27;72.88
54556;BME280;57291;37.520;15.106;2024-03-23T12:40:47;101344.03;;;18.20;72.86
54556;BME280;57291;37.520;15.106;2024-03-23T12:43:14;101339.38;;;18.12;73.25
54556;BME280;57291;37.520;15.106;2024-03-23T12:45:41;101342.78;;;18.09;73.41
54556;BME280;57291;37.520;15.106;2024-03-23T12:48:07;101332.53;;;17.79;75.15
54556;BME280;57291;37.520;15.106;2024-03-23T12:50:33;101332.56;;;17.62;77.58
54556;BME280;57291;37.520;15.106;2024-03-23T12:52:59;101335.34;;;17.53;79.48
54556;BME280;57291;37.520;15.106;2024-03-23T12:55:26;101324.47;;;17.74;79.17
54556;BME280;57291;37.520;15.106;2024-03-23T12:57:52;101321.75;;;17.57;79.29
54556;BME280;57291;37.520;15.106;2024-03-23T13:00:19;101316.09;;;17.53;78.79
54556;BME280;57291;37.520;15.106;2024-03-23T13:02:46;101317.28;;;17.35;79.40
54556;BME280;57291;37.520;15.106;2024-03-23T13:05:12;101314.59;;;17.18;80.60
54556;BME280;57291;37.520;15.106;2024-03-23T13:07:38;101319.59;;;17.16;83.55
54556;BME280;57291;37.520;15.106;2024-03-23T13:10:05;101318.94;;;17.10;82.03
54556;BME280;57291;37.520;15.106;2024-03-23T13:12:32;101317.59;;;17.33;82.52
54556;BME280;57291;37.520;15.106;2024-03-23T13:14:59;101320.00;;;17.52;81.11
54556;BME280;57291;37.520;15.106;2024-03-23T13:17:26;101317.38;;;17.65;79.33
54556;BME280;57291;37.520;15.106;2024-03-23T13:19:54;101318.03;;;17.62;78.91
54556;BME280;57291;37.520;15.106;2024-03-23T13:22:21;101312.56;;;17.53;80.26
54556;BME280;57291;37.520;15.106;2024-03-23T13:24:48;101315.16;;;17.49;79.12
54556;BME280;57291;37.520;15.106;2024-03-23T13:27:14;101315.50;;;17.48;80.44
54556;BME280;57291;37.520;15.106;2024-03-23T13:29:40;101314.84;;;17.33;84.09
54556;BME280;57291;37.520;15.106;2024-03-23T13:32:07;101308.41;;;17.29;83.12
54556;BME280;57291;37.520;15.106;2024-03-23T13:34:33;101308.06;;;17.40;82.65
54556;BME280;57291;37.520;15.106;2024-03-23T13:37:01;101304.50;;;17.39;82.25
54556;BME280;57291;37.520;15.106;2024-03-23T13:39:27;101311.66;;;17.23;83.13
54556;BME280;57291;37.520;15.106;2024-03-23T13:41:54;101304.41;;;17.18;84.98